sensor_id;sensor_type;location;lat;lon;timestamp;temperature;humidity
4058;DHT22;2044;48.692;9.020;2023-08-24T00:01:11;16.80;99.90
4058;DHT22;2044;48.692;9.020;2023-08-24T00:03:38;16.80;99.90
4058;DHT22;2044;48.692;9.020;2023-08-24T00:06:05;16.60;99.90
4058;DHT22;2044;48.692;9.020;2023-08-24T00:08:32;16.60;99.90
4058;DHT22;2044;48.692;9.020;2023-08-24T00:10:59;16.50;99.90
4058;DHT22;2044;48.692;9.020;2023-08-24T00:13:26;16.40;99.90
4058;DHT22;2044;48.692;9.020;2023-08-24T00:15:54;16.30;99.90
4058;DHT22;2044;48.692;9.020;2023-08-24T00:18:21;16.30;99.90
4058;DHT22;2044;48.692;9.020;2023-08-24T00:20:49;16.40;99.90
4058;DHT22;2044;48.692;9.020;2023-08-24T00:23:16;16.50;99.90
4058;DHT22;2044;48.692;9.020;2023-08-24T00:25:43;16.40;99.90
4058;DHT22;2044;48.692;9.020;2023-08-24T00:28:10;17.00;99.90
4058;DHT22;2044;48.692;9.020;2023-08-24T00:30:37;17.00;99.90
4058;DHT22;2044;48.692;9.020;2023-08-24T00:33:05;16.90;99.90
4058;DHT22;2044;48.692;9.020;2023-08-24T00:35:32;16.70;99.90
4058;DHT22;2044;48.692;9.020;2023-08-24T00:37:59;16.60;99.90
4058;DHT22;2044;48.692;9.020;2023-08-24T00:40:25;16.50;99.90
4058;DHT22;2044;48.692;9.020;2023-08-24T00:42:52;16.70;99.90
4058;DHT22;2044;48.692;9.020;2023-08-24T00:47:47;16.50;99.90
4058;DHT22;2044;48.692;9.020;2023-08-24T00:50:17;16.50;99.90
4058;DHT22;2044;48.692;9.020;2023-08-24T00:52:46;16.50;99.90
4058;DHT22;2044;48.692;9.020;2023-08-24T00:55:14;16.60;99.90
4058;DHT22;2044;48.692;9.020;2023-08-24T00:57:41;16.70;99.90
4058;DHT22;2044;48.692;9.020;2023-08-24T01:00:09;16.70;99.90
4058;DHT22;2044;48.692;9.020;2023-08-24T01:05:04;16.60;99.90
4058;DHT22;2044;48.692;9.020;2023-08-24T01:07:34;16.50;99.90
4058;DHT22;2044;48.692;9.020;2023-08-24T01:10:02;16.50;99.90
4058;DHT22;2044;48.692;9.020;2023-08-24T01:12:39;16.40;99.90
4058;DHT22;2044;48.692;9.020;2023-08-24T01:15:13;16.30;99.90
4058;DHT22;2044;48.692;9.020;2023-08-24T01:17:43;16.30;99.90
4058;DHT22;2044;48.692;9.020;2023-08-24T01:20:10;16.30;99.90
4058;DHT22;2044;48.692;9.020;2023-08-24T01:22:46;16.50;99.90
4058;DHT22;2044;48.692;9.020;2023-08-24T01:25:18;16.40;99.90
4058;DHT22;2044;48.692;9.020;2023-08-24T01:30:17;16.70;99.90
4058;DHT22;2044;48.692;9.020;2023-08-24T01:32:45;16.60;99.90
4058;DHT22;2044;48.692;9.020;2023-08-24T01:35:12;16.40;99.90
4058;DHT22;2044;48.692;9.020;2023-08-24T01:37:38;16.20;99.90
4058;DHT22;2044;48.692;9.020;2023-08-24T01:40:07;16.10;99.90
4058;DHT22;2044;48.692;9.020;2023-08-24T01:42:45;16.10;99.90
4058;DHT22;2044;48.692;9.020;2023-08-24T01:45:16;16.00;99.90
4058;DHT22;2044;48.692;9.020;2023-08-24T01:47:45;15.80;99.90
4058;DHT22;2044;48.692;9.020;2023-08-24T01:50:13;15.80;99.90
4058;DHT22;2044;48.692;9.020;2023-08-24T01:52:41;15.90;99.90
4058;DHT22;2044;48.692;9.020;2023-08-24T01:55:08;15.90;99.90
4058;DHT22;2044;48.692;9.020;2023-08-24T01:57:35;15.90;99.90
4058;DHT22;2044;48.692;9.020;2023-08-24T02:00:03;15.90;99.90
4058;DHT22;2044;48.692;9.020;2023-08-24T02:02:35;15.70;99.90
4058;DHT22;2044;48.692;9.020;2023-08-24T02:05:01;15.70;99.90
4058;DHT22;2044;48.692;9.020;2023-08-24T02:07:29;15.60;99.90
4058;DHT22;2044;48.692;9.020;2023-08-24T02:09:55;15.60;99.90
4058;DHT22;2044;48.692;9.020;2023-08-24T02:12:22;15.60;99.90
4058;DHT22;2044;48.692;9.020;2023-08-24T02:14:49;15.50;99.90
4058;DHT22;2044;48.692;9.020;2023-08-24T02:17:16;15.50;99.90
4058;DHT22;2044;48.692;9.020;2023-08-24T02:19:44;15.50;99.90
4058;DHT22;2044;48.692;9.020;2023-08-24T02:22:11;15.50;99.90
4058;DHT22;2044;48.692;9.020;2023-08-24T02:24:37;15.50;99.90
4058;DHT22;2044;48.692;9.020;2023-08-24T02:27:04;15.60;99.90
4058;DHT22;2044;48.692;9.020;2023-08-24T02:29:31;15.50;99.90
4058;DHT22;2044;48.692;9.020;2023-08-24T02:31:58;15.40;99.90
4058;DHT22;2044;48.692;9.020;2023-08-24T02:34:25;15.50;99.90
4058;DHT22;2044;48.692;9.020;2023-08-24T02:36:53;15.40;99.90
4058;DHT22;2044;48.692;9.020;2023-08-24T02:39:19;15.50;99.90
4058;DHT22;2044;48.692;9.020;2023-08-24T02:41:46;15.50;99.90
4058;DHT22;2044;48.692;9.020;2023-08-24T02:44:13;15.50;99.90
4058;DHT22;2044;48.692;9.020;2023-08-24T02:46:39;15.60;99.90
4058;DHT22;2044;48.692;9.020;2023-08-24T02:49:07;15.60;99.90
4058;DHT22;2044;48.692;9.020;2023-08-24T02:51:34;15.80;99.90
4058;DHT22;2044;48.692;9.020;2023-08-24T02:54:03;15.80;99.90
4058;DHT22;2044;48.692;9.020;2023-08-24T02:56:29;15.90;99.90
4058;DHT22;2044;48.692;9.020;2023-08-24T02:58:56;16.10;99.90
4058;DHT22;2044;48.692;9.020;2023-08-24T03:01:23;16.10;99.90
4058;DHT22;2044;48.692;9.020;2023-08-24T03:03:49;16.10;99.90
4058;DHT22;2044;48.692;9.020;2023-08-24T03:06:16;16.10;99.90
4058;DHT22;2044;48.692;9.020;2023-08-24T03:08:43;16.10;99.90
4058;DHT22;2044;48.692;9.020;2023-08-24T03:11:11;16.10;99.90
4058;DHT22;2044;48.692;9.020;2023-08-24T03:13:37;16.10;99.90
4058;DHT22;2044;48.692;9.020;2023-08-24T03:16:05;16.10;99.90
4058;DHT22;2044;48.692;9.020;2023-08-24T03:18:32;16.20;99.90
4058;DHT22;2044;48.692;9.020;2023-08-24T03:20:58;16.20;99.90
4058;DHT22;2044;48.692;9.020;2023-08-24T03:23:25;16.40;99.90
4058;DHT22;2044;48.692;9.020;2023-08-24T03:25:52;16.40;99.90
4058;DHT22;2044;48.692;9.020;2023-08-24T03:28:20;16.30;99.90
4058;DHT22;2044;48.692;9.020;2023-08-24T03:30:48;16.30;99.90
4058;DHT22;2044;48.692;9.020;2023-08-24T03:33:15;16.20;99.90
4058;DHT22;2044;48.692;9.020;2023-08-24T03:35:42;16.20;99.90
4058;DHT22;2044;48.692;9.020;2023-08-24T03:38:09;16.10;99.90
4058;DHT22;2044;48.692;9.020;2023-08-24T03:40:36;16.00;99.90
4058;DHT22;2044;48.692;9.020;2023-08-24T03:43:03;16.00;99.90
4058;DHT22;2044;48.692;9.020;2023-08-24T03:45:31;16.00;99.90
4058;DHT22;2044;48.692;9.020;2023-08-24T03:47:58;15.90;99.90
4058;DHT22;2044;48.692;9.020;2023-08-24T03:50:24;15.90;99.90
4058;DHT22;2044;48.692;9.020;2023-08-24T03:52:51;16.00;99.90
4058;DHT22;2044;48.692;9.020;2023-08-24T03:55:19;15.90;99.90
4058;DHT22;2044;48.692;9.020;2023-08-24T03:57:46;16.00;99.90
4058;DHT22;2044;48.692;9.020;2023-08-24T04:00:14;16.00;99.90
4058;DHT22;2044;48.692;9.020;2023-08-24T04:02:42;16.10;99.90
4058;DHT22;2044;48.692;9.020;2023-08-24T04:05:09;16.20;99.90
4058;DHT22;2044;48.692;9.020;2023-08-24T04:07:35;16.40;99.90
4058;DHT22;2044;48.692;9.020;2023-08-24T04:10:04;16.50;99.90
4058;DHT22;2044;48.692;9.020;2023-08-24T04:12:31;16.50;99.90
4058;DHT22;2044;48.692;9.020;2023-08-24T04:14:58;16.50;99.90
4058;DHT22;2044;48.692;9.020;2023-08-24T04:17:24;16.50;99.90
4058;DHT22;2044;48.692;9.020;2023-08-24T04:19:53;16.60;99.90
4058;DHT22;2044;48.692;9.020;2023-08-24T04:22:19;16.60;99.90
4058;DHT22;2044;48.692;9.020;2023-08-24T04:24:46;16.60;99.90
4058;DHT22;2044;48.692;9.020;2023-08-24T04:29:41;16.50;99.90
4058;DHT22;2044;48.692;9.020;2023-08-24T04:32:08;16.60;99.90
4058;DHT22;2044;48.692;9.020;2023-08-24T04:34:35;16.70;99.90
4058;DHT22;2044;48.692;9.020;2023-08-24T04:37:03;16.70;99.90
4058;DHT22;2044;48.692;9.020;2023-08-24T04:39:29;16.70;99.90
4058;DHT22;2044;48.692;9.020;2023-08-24T04:41:56;16.80;99.90
4058;DHT22;2044;48.692;9.020;2023-08-24T04:44:23;16.80;99.90
4058;DHT22;2044;48.692;9.020;2023-08-24T04:46:50;16.90;99.90
4058;DHT22;2044;48.692;9.020;2023-08-24T04:49:17;16.90;99.90
4058;DHT22;2044;48.692;9.020;2023-08-24T04:51:43;16.80;99.90
4058;DHT22;2044;48.692;9.020;2023-08-24T04:54:11;16.70;99.90
4058;DHT22;2044;48.692;9.020;2023-08-24T04:56:38;16.80;99.90
4058;DHT22;2044;48.692;9.020;2023-08-24T04:59:05;16.80;99.90
4058;DHT22;2044;48.692;9.020;2023-08-24T05:01:33;16.80;99.90
4058;DHT22;2044;48.692;9.020;2023-08-24T05:04:00;17.00;99.90
4058;DHT22;2044;48.692;9.020;2023-08-24T05:06:27;17.10;99.90
4058;DHT22;2044;48.692;9.020;2023-08-24T05:08:54;17.30;99.90
4058;DHT22;2044;48.692;9.020;2023-08-24T05:11:26;17.40;99.90
4058;DHT22;2044;48.692;9.020;2023-08-24T05:13:54;17.50;99.90
4058;DHT22;2044;48.692;9.020;2023-08-24T05:16:21;17.50;99.90
4058;DHT22;2044;48.692;9.020;2023-08-24T05:18:48;17.80;99.90
4058;DHT22;2044;48.692;9.020;2023-08-24T05:21:15;17.90;99.90
4058;DHT22;2044;48.692;9.020;2023-08-24T05:23:42;18.10;99.90
4058;DHT22;2044;48.692;9.020;2023-08-24T05:26:09;18.30;99.90
4058;DHT22;2044;48.692;9.020;2023-08-24T05:31:04;18.80;99.90
4058;DHT22;2044;48.692;9.020;2023-08-24T05:33:31;19.00;99.90
4058;DHT22;2044;48.692;9.020;2023-08-24T05:38:25;19.20;99.90
4058;DHT22;2044;48.692;9.020;2023-08-24T05:40:52;19.20;99.90
4058;DHT22;2044;48.692;9.020;2023-08-24T05:43:19;19.30;99.90
4058;DHT22;2044;48.692;9.020;2023-08-24T05:45:48;19.30;99.90
4058;DHT22;2044;48.692;9.020;2023-08-24T05:48:14;19.40;99.90
4058;DHT22;2044;48.692;9.020;2023-08-24T05:50:45;19.40;99.90
4058;DHT22;2044;48.692;9.020;2023-08-24T05:53:12;19.60;99.90
4058;DHT22;2044;48.692;9.020;2023-08-24T05:55:38;19.90;99.90
4058;DHT22;2044;48.692;9.020;2023-08-24T05:58:05;20.70;99.90
4058;DHT22;2044;48.692;9.020;2023-08-24T06:03:01;20.90;99.90
4058;DHT22;2044;48.692;9.020;2023-08-24T06:05:29;20.90;99.90
4058;DHT22;2044;48.692;9.020;2023-08-24T06:07:56;21.10;99.90
4058;DHT22;2044;48.692;9.020;2023-08-24T06:10:23;21.20;99.90
4058;DHT22;2044;48.692;9.020;2023-08-24T06:12:51;21.20;99.90
4058;DHT22;2044;48.692;9.020;2023-08-24T06:15:18;21.10;99.90
4058;DHT22;2044;48.692;9.020;2023-08-24T06:17:46;21.10;99.90
4058;DHT22;2044;48.692;9.020;2023-08-24T06:20:14;21.00;99.90
4058;DHT22;2044;48.692;9.020;2023-08-24T06:22:41;21.00;99.90
4058;DHT22;2044;48.692;9.020;2023-08-24T06:25:08;21.00;99.90
4058;DHT22;2044;48.692;9.020;2023-08-24T06:27:36;21.00;99.90
4058;DHT22;2044;48.692;9.020;2023-08-24T06:30:03;21.00;99.90
4058;DHT22;2044;48.692;9.020;2023-08-24T06:32:30;21.10;99.90
4058;DHT22;2044;48.692;9.020;2023-08-24T06:37:26;21.20;99.90
4058;DHT22;2044;48.692;9.020;2023-08-24T06:39:53;21.20;99.90
4058;DHT22;2044;48.692;9.020;2023-08-24T06:42:20;21.10;99.90
4058;DHT22;2044;48.692;9.020;2023-08-24T06:44:47;21.10;99.90
4058;DHT22;2044;48.692;9.020;2023-08-24T06:47:15;21.10;99.90
4058;DHT22;2044;48.692;9.020;2023-08-24T06:49:42;21.00;99.90
4058;DHT22;2044;48.692;9.020;2023-08-24T06:54:37;21.00;99.90
4058;DHT22;2044;48.692;9.020;2023-08-24T06:57:04;21.10;99.90
4058;DHT22;2044;48.692;9.020;2023-08-24T06:59:31;21.50;99.90
4058;DHT22;2044;48.692;9.020;2023-08-24T07:01:57;21.00;99.90
4058;DHT22;2044;48.692;9.020;2023-08-24T07:04:25;21.20;99.90
4058;DHT22;2044;48.692;9.020;2023-08-24T07:06:52;21.30;99.90
4058;DHT22;2044;48.692;9.020;2023-08-24T07:09:19;21.60;99.90
4058;DHT22;2044;48.692;9.020;2023-08-24T07:11:47;21.70;99.90
4058;DHT22;2044;48.692;9.020;2023-08-24T07:14:14;22.00;99.90
4058;DHT22;2044;48.692;9.020;2023-08-24T07:16:41;22.30;99.90
4058;DHT22;2044;48.692;9.020;2023-08-24T07:19:08;22.70;99.90
4058;DHT22;2044;48.692;9.020;2023-08-24T07:21:35;22.90;99.90
4058;DHT22;2044;48.692;9.020;2023-08-24T07:24:02;23.40;99.90
4058;DHT22;2044;48.692;9.020;2023-08-24T07:28:58;26.60;99.90
4058;DHT22;2044;48.692;9.020;2023-08-24T07:31:25;26.70;99.90
4058;DHT22;2044;48.692;9.020;2023-08-24T07:33:52;28.40;99.90
4058;DHT22;2044;48.692;9.020;2023-08-24T07:36:19;29.70;99.90
4058;DHT22;2044;48.692;9.020;2023-08-24T07:38:46;30.80;99.90
4058;DHT22;2044;48.692;9.020;2023-08-24T07:41:13;30.70;99.90
4058;DHT22;2044;48.692;9.020;2023-08-24T07:43:39;30.50;99.90
4058;DHT22;2044;48.692;9.020;2023-08-24T07:46:07;30.50;99.90
4058;DHT22;2044;48.692;9.020;2023-08-24T07:48:34;32.80;99.90
4058;DHT22;2044;48.692;9.020;2023-08-24T07:51:01;33.40;99.90
4058;DHT22;2044;48.692;9.020;2023-08-24T07:53:28;34.70;99.90
4058;DHT22;2044;48.692;9.020;2023-08-24T07:55:55;34.70;99.90
4058;DHT22;2044;48.692;9.020;2023-08-24T07:58:22;34.40;99.90
4058;DHT22;2044;48.692;9.020;2023-08-24T08:00:49;34.40;99.90
4058;DHT22;2044;48.692;9.020;2023-08-24T08:03:18;33.60;99.90
4058;DHT22;2044;48.692;9.020;2023-08-24T08:05:45;32.90;99.90
4058;DHT22;2044;48.692;9.020;2023-08-24T08:08:13;33.60;99.90
4058;DHT22;2044;48.692;9.020;2023-08-24T08:10:41;33.50;99.90
4058;DHT22;2044;48.692;9.020;2023-08-24T08:13:08;33.00;99.90
4058;DHT22;2044;48.692;9.020;2023-08-24T08:15:36;32.90;99.90
4058;DHT22;2044;48.692;9.020;2023-08-24T08:18:03;34.10;99.90
4058;DHT22;2044;48.692;9.020;2023-08-24T08:20:32;34.00;99.90
4058;DHT22;2044;48.692;9.020;2023-08-24T08:22:58;34.70;99.90
4058;DHT22;2044;48.692;9.020;2023-08-24T08:25:25;35.00;99.90
4058;DHT22;2044;48.692;9.020;2023-08-24T08:27:52;33.80;99.90
4058;DHT22;2044;48.692;9.020;2023-08-24T08:30:19;33.80;99.90
4058;DHT22;2044;48.692;9.020;2023-08-24T08:32:46;33.20;99.90
4058;DHT22;2044;48.692;9.020;2023-08-24T08:35:13;32.40;99.90
4058;DHT22;2044;48.692;9.020;2023-08-24T08:37:41;30.30;99.90
4058;DHT22;2044;48.692;9.020;2023-08-24T08:40:10;31.90;99.90
4058;DHT22;2044;48.692;9.020;2023-08-24T08:45:09;32.40;99.90
4058;DHT22;2044;48.692;9.020;2023-08-24T08:47:35;32.30;99.90
4058;DHT22;2044;48.692;9.020;2023-08-24T08:50:03;31.60;99.90
4058;DHT22;2044;48.692;9.020;2023-08-24T08:52:31;31.30;99.90
4058;DHT22;2044;48.692;9.020;2023-08-24T08:55:00;31.60;99.90
4058;DHT22;2044;48.692;9.020;2023-08-24T08:57:32;31.20;99.90
4058;DHT22;2044;48.692;9.020;2023-08-24T08:59:59;31.10;99.90
4058;DHT22;2044;48.692;9.020;2023-08-24T09:02:26;31.90;99.90
4058;DHT22;2044;48.692;9.020;2023-08-24T09:04:55;31.40;99.90
4058;DHT22;2044;48.692;9.020;2023-08-24T09:07:22;31.10;99.90
4058;DHT22;2044;48.692;9.020;2023-08-24T09:09:49;29.80;99.90
4058;DHT22;2044;48.692;9.020;2023-08-24T09:12:17;29.50;99.90
4058;DHT22;2044;48.692;9.020;2023-08-24T09:14:44;29.60;99.90
4058;DHT22;2044;48.692;9.020;2023-08-24T09:17:19;30.10;99.90
4058;DHT22;2044;48.692;9.020;2023-08-24T09:19:46;29.60;99.90
4058;DHT22;2044;48.692;9.020;2023-08-24T09:22:15;29.10;99.90
4058;DHT22;2044;48.692;9.020;2023-08-24T09:24:42;29.40;99.90
4058;DHT22;2044;48.692;9.020;2023-08-24T09:27:14;29.50;99.90
4058;DHT22;2044;48.692;9.020;2023-08-24T09:29:43;30.40;99.90
4058;DHT22;2044;48.692;9.020;2023-08-24T09:32:10;30.30;99.90
4058;DHT22;2044;48.692;9.020;2023-08-24T09:34:37;30.30;99.90
4058;DHT22;2044;48.692;9.020;2023-08-24T09:37:04;30.50;99.90
4058;DHT22;2044;48.692;9.020;2023-08-24T09:39:31;31.10;99.90
4058;DHT22;2044;48.692;9.020;2023-08-24T09:42:00;31.30;99.90
4058;DHT22;2044;48.692;9.020;2023-08-24T09:44:28;31.70;99.90
4058;DHT22;2044;48.692;9.020;2023-08-24T09:46:56;31.40;99.90
4058;DHT22;2044;48.692;9.020;2023-08-24T09:49:23;31.60;99.90
4058;DHT22;2044;48.692;9.020;2023-08-24T09:51:52;31.80;99.90
4058;DHT22;2044;48.692;9.020;2023-08-24T09:54:24;31.60;99.90
4058;DHT22;2044;48.692;9.020;2023-08-24T09:56:54;32.30;99.90
4058;DHT22;2044;48.692;9.020;2023-08-24T09:59:22;33.00;99.90
4058;DHT22;2044;48.692;9.020;2023-08-24T10:01:51;32.90;99.90
4058;DHT22;2044;48.692;9.020;2023-08-24T10:04:23;32.20;99.90
4058;DHT22;2044;48.692;9.020;2023-08-24T10:06:52;32.10;99.90
4058;DHT22;2044;48.692;9.020;2023-08-24T10:09:25;32.90;99.90
4058;DHT22;2044;48.692;9.020;2023-08-24T10:11:55;33.00;99.90
4058;DHT22;2044;48.692;9.020;2023-08-24T10:14:29;33.30;99.90
4058;DHT22;2044;48.692;9.020;2023-08-24T10:16:58;33.40;99.90
4058;DHT22;2044;48.692;9.020;2023-08-24T10:19:28;32.20;99.90
4058;DHT22;2044;48.692;9.020;2023-08-24T10:21:55;31.90;99.90
4058;DHT22;2044;48.692;9.020;2023-08-24T10:24:23;32.00;99.90
4058;DHT22;2044;48.692;9.020;2023-08-24T10:26:50;32.30;99.90
4058;DHT22;2044;48.692;9.020;2023-08-24T10:29:19;31.80;99.90
4058;DHT22;2044;48.692;9.020;2023-08-24T10:31:48;31.80;99.90
4058;DHT22;2044;48.692;9.020;2023-08-24T10:34:16;32.30;99.90
4058;DHT22;2044;48.692;9.020;2023-08-24T10:36:47;32.20;99.90
4058;DHT22;2044;48.692;9.020;2023-08-24T10:39:14;31.60;99.90
4058;DHT22;2044;48.692;9.020;2023-08-24T10:41:48;31.70;99.90
4058;DHT22;2044;48.692;9.020;2023-08-24T10:44:23;32.60;99.90
4058;DHT22;2044;48.692;9.020;2023-08-24T10:47:06;32.00;99.90
4058;DHT22;2044;48.692;9.020;2023-08-24T10:49:33;32.80;99.90
4058;DHT22;2044;48.692;9.020;2023-08-24T10:52:20;32.50;99.90
4058;DHT22;2044;48.692;9.020;2023-08-24T10:54:47;33.00;99.90
4058;DHT22;2044;48.692;9.020;2023-08-24T10:57:19;33.60;99.90
4058;DHT22;2044;48.692;9.020;2023-08-24T10:59:57;32.80;99.90
4058;DHT22;2044;48.692;9.020;2023-08-24T11:02:25;32.60;99.90
4058;DHT22;2044;48.692;9.020;2023-08-24T11:05:05;32.40;99.90
4058;DHT22;2044;48.692;9.020;2023-08-24T11:07:34;32.40;99.90
4058;DHT22;2044;48.692;9.020;2023-08-24T11:10:11;31.90;99.90
4058;DHT22;2044;48.692;9.020;2023-08-24T11:13:04;32.70;99.90
4058;DHT22;2044;48.692;9.020;2023-08-24T11:15:31;33.40;99.90
4058;DHT22;2044;48.692;9.020;2023-08-24T11:18:23;33.20;99.90
4058;DHT22;2044;48.692;9.020;2023-08-24T11:20:52;33.00;99.90
4058;DHT22;2044;48.692;9.020;2023-08-24T11:23:22;33.30;99.90
4058;DHT22;2044;48.692;9.020;2023-08-24T11:25:51;32.80;99.90
4058;DHT22;2044;48.692;9.020;2023-08-24T11:28:21;32.80;99.90
4058;DHT22;2044;48.692;9.020;2023-08-24T11:30:48;32.60;99.90
4058;DHT22;2044;48.692;9.020;2023-08-24T11:33:16;32.80;99.90
4058;DHT22;2044;48.692;9.020;2023-08-24T11:35:45;33.30;99.90
4058;DHT22;2044;48.692;9.020;2023-08-24T11:38:12;33.90;99.90
4058;DHT22;2044;48.692;9.020;2023-08-24T11:40:40;34.00;99.90
4058;DHT22;2044;48.692;9.020;2023-08-24T11:43:08;33.70;99.90
4058;DHT22;2044;48.692;9.020;2023-08-24T11:45:35;33.70;99.90
4058;DHT22;2044;48.692;9.020;2023-08-24T11:48:04;33.60;99.90
4058;DHT22;2044;48.692;9.020;2023-08-24T11:50:32;33.40;99.90
4058;DHT22;2044;48.692;9.020;2023-08-24T11:53:00;33.10;99.90
4058;DHT22;2044;48.692;9.020;2023-08-24T11:55:28;33.90;99.90
4058;DHT22;2044;48.692;9.020;2023-08-24T11:57:56;33.60;99.90
4058;DHT22;2044;48.692;9.020;2023-08-24T12:00:23;33.50;99.90
4058;DHT22;2044;48.692;9.020;2023-08-24T12:02:50;33.00;99.90
4058;DHT22;2044;48.692;9.020;2023-08-24T12:05:21;33.40;99.90
4058;DHT22;2044;48.692;9.020;2023-08-24T12:07:49;34.30;99.90
4058;DHT22;2044;48.692;9.020;2023-08-24T12:10:16;34.30;99.90
4058;DHT22;2044;48.692;9.020;2023-08-24T12:12:43;33.80;99.90
4058;DHT22;2044;48.692;9.020;2023-08-24T12:15:16;33.10;99.90
4058;DHT22;2044;48.692;9.020;2023-08-24T12:17:45;33.20;99.90
4058;DHT22;2044;48.692;9.020;2023-08-24T12:20:20;33.20;99.90
4058;DHT22;2044;48.692;9.020;2023-08-24T12:22:52;33.70;99.90
4058;DHT22;2044;48.692;9.020;2023-08-24T12:25:21;34.40;99.90
4058;DHT22;2044;48.692;9.020;2023-08-24T12:27:48;35.10;99.90
4058;DHT22;2044;48.692;9.020;2023-08-24T12:30:16;35.60;99.90
4058;DHT22;2044;48.692;9.020;2023-08-24T12:32:43;36.20;99.90
4058;DHT22;2044;48.692;9.020;2023-08-24T12:35:11;35.80;99.90
4058;DHT22;2044;48.692;9.020;2023-08-24T12:37:37;35.20;99.90
4058;DHT22;2044;48.692;9.020;2023-08-24T12:40:05;35.00;99.90
4058;DHT22;2044;48.692;9.020;2023-08-24T12:42:33;35.40;99.90
4058;DHT22;2044;48.692;9.020;2023-08-24T12:44:59;35.00;99.90
4058;DHT22;2044;48.692;9.020;2023-08-24T12:47:27;34.80;99.90
4058;DHT22;2044;48.692;9.020;2023-08-24T12:49:54;34.90;99.90
4058;DHT22;2044;48.692;9.020;2023-08-24T12:52:22;36.00;99.90
4058;DHT22;2044;48.692;9.020;2023-08-24T12:54:49;35.90;99.90
4058;DHT22;2044;48.692;9.020;2023-08-24T12:57:15;35.30;99.90
4058;DHT22;2044;48.692;9.020;2023-08-24T12:59:42;34.70;99.90
4058;DHT22;2044;48.692;9.020;2023-08-24T13:02:09;34.70;99.90
4058;DHT22;2044;48.692;9.020;2023-08-24T13:04:37;35.10;99.90
4058;DHT22;2044;48.692;9.020;2023-08-24T13:07:04;35.60;99.90
4058;DHT22;2044;48.692;9.020;2023-08-24T13:09:30;35.20;99.90
4058;DHT22;2044;48.692;9.020;2023-08-24T13:11:57;34.60;99.90
4058;DHT22;2044;48.692;9.020;2023-08-24T13:14:24;35.50;99.90
4058;DHT22;2044;48.692;9.020;2023-08-24T13:16:51;35.80;99.90
4058;DHT22;2044;48.692;9.020;2023-08-24T13:19:17;35.40;99.90
4058;DHT22;2044;48.692;9.020;2023-08-24T13:21:45;34.90;99.90
4058;DHT22;2044;48.692;9.020;2023-08-24T13:24:12;35.20;99.90
4058;DHT22;2044;48.692;9.020;2023-08-24T13:26:39;35.80;99.90
4058;DHT22;2044;48.692;9.020;2023-08-24T13:29:05;35.70;99.90
4058;DHT22;2044;48.692;9.020;2023-08-24T13:31:32;35.50;99.90
4058;DHT22;2044;48.692;9.020;2023-08-24T13:34:00;36.40;99.90
4058;DHT22;2044;48.692;9.020;2023-08-24T13:36:30;35.30;99.90
4058;DHT22;2044;48.692;9.020;2023-08-24T13:38:58;36.40;99.90
4058;DHT22;2044;48.692;9.020;2023-08-24T13:41:24;36.40;99.90
4058;DHT22;2044;48.692;9.020;2023-08-24T13:43:51;35.50;99.90
4058;DHT22;2044;48.692;9.020;2023-08-24T13:46:18;34.90;99.90
4058;DHT22;2044;48.692;9.020;2023-08-24T13:48:44;35.20;99.90
4058;DHT22;2044;48.692;9.020;2023-08-24T13:51:11;35.30;99.90
4058;DHT22;2044;48.692;9.020;2023-08-24T13:56:06;36.60;99.90
4058;DHT22;2044;48.692;9.020;2023-08-24T13:58:33;35.50;99.90
4058;DHT22;2044;48.692;9.020;2023-08-24T14:01:00;35.30;99.90
4058;DHT22;2044;48.692;9.020;2023-08-24T14:03:29;35.30;1.00
4058;DHT22;2044;48.692;9.020;2023-08-24T14:05:56;34.70;99.90
4058;DHT22;2044;48.692;9.020;2023-08-24T14:08:23;34.30;1.00
4058;DHT22;2044;48.692;9.020;2023-08-24T14:10:51;34.20;99.90
4058;DHT22;2044;48.692;9.020;2023-08-24T14:13:19;34.30;99.90
4058;DHT22;2044;48.692;9.020;2023-08-24T14:15:48;34.20;99.90
4058;DHT22;2044;48.692;9.020;2023-08-24T14:18:15;34.70;99.90
4058;DHT22;2044;48.692;9.020;2023-08-24T14:20:42;34.80;99.90
4058;DHT22;2044;48.692;9.020;2023-08-24T14:23:09;36.10;99.90
4058;DHT22;2044;48.692;9.020;2023-08-24T14:25:36;34.60;99.90
4058;DHT22;2044;48.692;9.020;2023-08-24T14:28:03;34.60;99.90
4058;DHT22;2044;48.692;9.020;2023-08-24T14:30:31;34.60;99.90
4058;DHT22;2044;48.692;9.020;2023-08-24T14:32:58;34.80;99.90
4058;DHT22;2044;48.692;9.020;2023-08-24T14:35:24;34.60;99.90
4058;DHT22;2044;48.692;9.020;2023-08-24T14:42:45;34.10;99.90
4058;DHT22;2044;48.692;9.020;2023-08-24T14:45:14;33.90;99.90
4058;DHT22;2044;48.692;9.020;2023-08-24T14:47:43;33.60;99.90
4058;DHT22;2044;48.692;9.020;2023-08-24T14:50:10;33.50;99.90
4058;DHT22;2044;48.692;9.020;2023-08-24T14:52:36;34.60;99.90
4058;DHT22;2044;48.692;9.020;2023-08-24T14:55:05;33.00;99.90
4058;DHT22;2044;48.692;9.020;2023-08-24T14:57:33;32.60;99.90
4058;DHT22;2044;48.692;9.020;2023-08-24T15:00:00;31.30;99.90
4058;DHT22;2044;48.692;9.020;2023-08-24T15:02:27;30.00;99.90
4058;DHT22;2044;48.692;9.020;2023-08-24T15:04:55;28.80;99.90
4058;DHT22;2044;48.692;9.020;2023-08-24T15:07:22;27.80;99.90
4058;DHT22;2044;48.692;9.020;2023-08-24T15:09:48;27.10;99.90
4058;DHT22;2044;48.692;9.020;2023-08-24T15:12:15;26.70;99.90
4058;DHT22;2044;48.692;9.020;2023-08-24T15:14:56;26.40;99.90
4058;DHT22;2044;48.692;9.020;2023-08-24T15:17:24;26.30;99.90
4058;DHT22;2044;48.692;9.020;2023-08-24T15:19:50;26.10;99.90
4058;DHT22;2044;48.692;9.020;2023-08-24T15:22:19;25.90;99.90
4058;DHT22;2044;48.692;9.020;2023-08-24T15:24:45;25.90;99.90
4058;DHT22;2044;48.692;9.020;2023-08-24T15:27:12;25.70;99.90
4058;DHT22;2044;48.692;9.020;2023-08-24T15:29:39;25.80;99.90
4058;DHT22;2044;48.692;9.020;2023-08-24T15:32:05;25.80;99.90
4058;DHT22;2044;48.692;9.020;2023-08-24T15:34:32;25.90;99.90
4058;DHT22;2044;48.692;9.020;2023-08-24T15:36:59;25.90;99.90
4058;DHT22;2044;48.692;9.020;2023-08-24T15:39:27;26.20;99.90
4058;DHT22;2044;48.692;9.020;2023-08-24T15:41:54;26.30;99.90
4058;DHT22;2044;48.692;9.020;2023-08-24T15:44:20;26.40;99.90
4058;DHT22;2044;48.692;9.020;2023-08-24T15:46:47;26.40;99.90
4058;DHT22;2044;48.692;9.020;2023-08-24T15:49:14;26.20;99.90
4058;DHT22;2044;48.692;9.020;2023-08-24T15:54:08;26.10;99.90
4058;DHT22;2044;48.692;9.020;2023-08-24T15:56:36;26.10;99.90
4058;DHT22;2044;48.692;9.020;2023-08-24T15:59:02;26.10;99.90
4058;DHT22;2044;48.692;9.020;2023-08-24T16:01:29;26.00;99.90
4058;DHT22;2044;48.692;9.020;2023-08-24T16:03:56;25.90;99.90
4058;DHT22;2044;48.692;9.020;2023-08-24T16:06:22;25.90;99.90
4058;DHT22;2044;48.692;9.020;2023-08-24T16:08:49;25.90;99.90
4058;DHT22;2044;48.692;9.020;2023-08-24T16:11:16;26.00;99.90
4058;DHT22;2044;48.692;9.020;2023-08-24T16:13:44;26.20;99.90
4058;DHT22;2044;48.692;9.020;2023-08-24T16:16:11;26.40;99.90
4058;DHT22;2044;48.692;9.020;2023-08-24T16:18:37;26.20;99.90
4058;DHT22;2044;48.692;9.020;2023-08-24T16:23:31;26.20;99.90
4058;DHT22;2044;48.692;9.020;2023-08-24T16:25:58;25.90;99.90
4058;DHT22;2044;48.692;9.020;2023-08-24T16:28:25;25.40;99.90
4058;DHT22;2044;48.692;9.020;2023-08-24T16:30:53;25.30;99.90
4058;DHT22;2044;48.692;9.020;2023-08-24T16:33:20;25.10;99.90
4058;DHT22;2044;48.692;9.020;2023-08-24T16:35:47;24.90;99.90
4058;DHT22;2044;48.692;9.020;2023-08-24T16:38:14;24.80;99.90
4058;DHT22;2044;48.692;9.020;2023-08-24T16:40:41;24.70;99.90
4058;DHT22;2044;48.692;9.020;2023-08-24T16:43:07;24.50;99.90
4058;DHT22;2044;48.692;9.020;2023-08-24T16:45:35;24.40;99.90